Terminal Aerodrome Forecast
Issued by NWS

Home | Current Version | Previous Version | Text Only | Print | Product List | Glossary On
Versions: 1 2 3 4 5 6 7 8 9 10 11 12 13 14 15 16 17 18 19 20 21 22 23 24 25 26 27
000
FTUS41 KBUF 060908 AAA
TAFIAG
TAF AMD
KIAG 060908Z 0609/0706 16004KT P6SM SCT250
     FM062200 18005KT P6SM VCSH BKN070
     FM070000 18004KT 6SM -SHRA BKN045
     FM070100 18004KT P6SM VCSH BKN045
     FM070200 17005KT P6SM VCSH BKN070
     FM070400 17006KT P6SM BKN090=

USA.gov is the U.S. government's official web portal to all federal, state and local government web resources and services.